sensor_id;sensor_type;location;lat;lon;timestamp;P1;durP1;ratioP1;P2;durP2;ratioP2
51987;SDS011;38003;52.012;4.346;2023-02-02T00:01:21;24.03;;;4.53;;
51987;SDS011;38003;52.012;4.346;2023-02-02T00:03:50;12.87;;;3.97;;
51987;SDS011;38003;52.012;4.346;2023-02-02T00:06:21;15.90;;;3.83;;
51987;SDS011;38003;52.012;4.346;2023-02-02T00:08:49;22.03;;;4.50;;
51987;SDS011;38003;52.012;4.346;2023-02-02T00:11:18;15.70;;;4.07;;
51987;SDS011;38003;52.012;4.346;2023-02-02T00:13:46;19.00;;;4.27;;
51987;SDS011;38003;52.012;4.346;2023-02-02T00:16:32;18.53;;;4.73;;
51987;SDS011;38003;52.012;4.346;2023-02-02T00:19:02;12.17;;;3.87;;
51987;SDS011;38003;52.012;4.346;2023-02-02T00:21:32;16.83;;;4.30;;
51987;SDS011;38003;52.012;4.346;2023-02-02T00:24:01;21.33;;;5.07;;
51987;SDS011;38003;52.012;4.346;2023-02-02T00:26:29;21.00;;;5.97;;
51987;SDS011;38003;52.012;4.346;2023-02-02T00:28:57;18.03;;;4.17;;
51987;SDS011;38003;52.012;4.346;2023-02-02T00:31:26;14.33;;;4.10;;
51987;SDS011;38003;52.012;4.346;2023-02-02T00:33:54;20.40;;;4.63;;
51987;SDS011;38003;52.012;4.346;2023-02-02T00:36:22;21.37;;;5.53;;
51987;SDS011;38003;52.012;4.346;2023-02-02T00:38:52;22.13;;;5.07;;
51987;SDS011;38003;52.012;4.346;2023-02-02T00:41:20;17.77;;;5.00;;
51987;SDS011;38003;52.012;4.346;2023-02-02T00:43:48;17.67;;;4.63;;
51987;SDS011;38003;52.012;4.346;2023-02-02T00:46:30;18.47;;;5.13;;
51987;SDS011;38003;52.012;4.346;2023-02-02T00:48:59;19.87;;;5.50;;
51987;SDS011;38003;52.012;4.346;2023-02-02T00:51:27;22.97;;;4.47;;
51987;SDS011;38003;52.012;4.346;2023-02-02T00:53:56;15.73;;;4.53;;
51987;SDS011;38003;52.012;4.346;2023-02-02T00:56:24;19.30;;;5.00;;
51987;SDS011;38003;52.012;4.346;2023-02-02T00:58:53;17.27;;;4.67;;
51987;SDS011;38003;52.012;4.346;2023-02-02T01:01:21;23.37;;;5.37;;
51987;SDS011;38003;52.012;4.346;2023-02-02T01:03:49;17.90;;;4.07;;
51987;SDS011;38003;52.012;4.346;2023-02-02T01:06:18;18.17;;;4.43;;
51987;SDS011;38003;52.012;4.346;2023-02-02T01:08:46;19.47;;;4.60;;
51987;SDS011;38003;52.012;4.346;2023-02-02T01:11:16;24.97;;;5.47;;
51987;SDS011;38003;52.012;4.346;2023-02-02T01:13:44;19.57;;;4.67;;
51987;SDS011;38003;52.012;4.346;2023-02-02T01:16:12;17.70;;;4.50;;
51987;SDS011;38003;52.012;4.346;2023-02-02T01:18:41;21.03;;;4.63;;
51987;SDS011;38003;52.012;4.346;2023-02-02T01:21:10;11.97;;;3.70;;
51987;SDS011;38003;52.012;4.346;2023-02-02T01:23:39;18.90;;;4.53;;
51987;SDS011;38003;52.012;4.346;2023-02-02T01:26:09;21.03;;;4.80;;
51987;SDS011;38003;52.012;4.346;2023-02-02T01:28:38;16.97;;;5.03;;
51987;SDS011;38003;52.012;4.346;2023-02-02T01:31:08;22.17;;;4.67;;
51987;SDS011;38003;52.012;4.346;2023-02-02T01:33:36;16.47;;;4.33;;
51987;SDS011;38003;52.012;4.346;2023-02-02T01:36:05;16.40;;;4.53;;
51987;SDS011;38003;52.012;4.346;2023-02-02T01:38:34;16.43;;;4.90;;
51987;SDS011;38003;52.012;4.346;2023-02-02T01:41:02;18.83;;;4.70;;
51987;SDS011;38003;52.012;4.346;2023-02-02T01:46:16;21.27;;;4.60;;
51987;SDS011;38003;52.012;4.346;2023-02-02T01:48:45;21.10;;;4.83;;
51987;SDS011;38003;52.012;4.346;2023-02-02T01:51:16;17.07;;;4.83;;
51987;SDS011;38003;52.012;4.346;2023-02-02T01:53:45;18.50;;;5.30;;
51987;SDS011;38003;52.012;4.346;2023-02-02T01:56:17;17.07;;;4.30;;
51987;SDS011;38003;52.012;4.346;2023-02-02T01:58:46;22.90;;;5.23;;
51987;SDS011;38003;52.012;4.346;2023-02-02T02:01:15;14.13;;;4.77;;
51987;SDS011;38003;52.012;4.346;2023-02-02T02:03:44;21.67;;;5.33;;
51987;SDS011;38003;52.012;4.346;2023-02-02T02:06:13;19.87;;;3.83;;
51987;SDS011;38003;52.012;4.346;2023-02-02T02:08:43;25.63;;;4.67;;
51987;SDS011;38003;52.012;4.346;2023-02-02T02:11:13;13.13;;;4.63;;
51987;SDS011;38003;52.012;4.346;2023-02-02T02:13:41;24.13;;;5.10;;
51987;SDS011;38003;52.012;4.346;2023-02-02T02:16:30;18.90;;;5.20;;
51987;SDS011;38003;52.012;4.346;2023-02-02T02:19:07;21.43;;;4.87;;
51987;SDS011;38003;52.012;4.346;2023-02-02T02:21:49;21.70;;;5.30;;
51987;SDS011;38003;52.012;4.346;2023-02-02T02:30:35;20.27;;;5.83;;
51987;SDS011;38003;52.012;4.346;2023-02-02T02:33:06;14.77;;;5.90;;
51987;SDS011;38003;52.012;4.346;2023-02-02T02:35:46;23.40;;;5.40;;
51987;SDS011;38003;52.012;4.346;2023-02-02T02:38:18;23.53;;;6.13;;
51987;SDS011;38003;52.012;4.346;2023-02-02T02:40:49;19.60;;;5.07;;
51987;SDS011;38003;52.012;4.346;2023-02-02T02:43:19;18.13;;;5.20;;
51987;SDS011;38003;52.012;4.346;2023-02-02T02:45:48;18.70;;;5.90;;
51987;SDS011;38003;52.012;4.346;2023-02-02T02:48:18;19.60;;;5.10;;
51987;SDS011;38003;52.012;4.346;2023-02-02T02:50:46;11.73;;;4.17;;
51987;SDS011;38003;52.012;4.346;2023-02-02T02:53:16;15.10;;;4.30;;
51987;SDS011;38003;52.012;4.346;2023-02-02T02:55:45;22.87;;;5.43;;
51987;SDS011;38003;52.012;4.346;2023-02-02T02:58:15;17.47;;;4.97;;
51987;SDS011;38003;52.012;4.346;2023-02-02T03:00:47;17.87;;;5.03;;
51987;SDS011;38003;52.012;4.346;2023-02-02T03:03:24;11.13;;;3.73;;
51987;SDS011;38003;52.012;4.346;2023-02-02T03:05:55;16.57;;;4.50;;
51987;SDS011;38003;52.012;4.346;2023-02-02T03:08:28;24.53;;;5.07;;
51987;SDS011;38003;52.012;4.346;2023-02-02T03:10:58;16.33;;;4.87;;
51987;SDS011;38003;52.012;4.346;2023-02-02T03:13:28;18.53;;;5.07;;
51987;SDS011;38003;52.012;4.346;2023-02-02T03:15:58;12.60;;;4.43;;
51987;SDS011;38003;52.012;4.346;2023-02-02T03:18:28;14.20;;;4.53;;
51987;SDS011;38003;52.012;4.346;2023-02-02T03:20:56;18.60;;;4.30;;
51987;SDS011;38003;52.012;4.346;2023-02-02T03:23:25;12.93;;;4.30;;
51987;SDS011;38003;52.012;4.346;2023-02-02T03:25:53;24.13;;;4.57;;
51987;SDS011;38003;52.012;4.346;2023-02-02T03:28:22;12.57;;;4.43;;
51987;SDS011;38003;52.012;4.346;2023-02-02T03:30:50;18.50;;;4.27;;
51987;SDS011;38003;52.012;4.346;2023-02-02T03:33:19;21.93;;;4.87;;
51987;SDS011;38003;52.012;4.346;2023-02-02T03:35:49;15.30;;;4.40;;
51987;SDS011;38003;52.012;4.346;2023-02-02T03:38:17;17.83;;;5.50;;
51987;SDS011;38003;52.012;4.346;2023-02-02T03:40:45;19.73;;;5.40;;
51987;SDS011;38003;52.012;4.346;2023-02-02T03:43:18;14.17;;;4.73;;
51987;SDS011;38003;52.012;4.346;2023-02-02T03:45:46;19.17;;;4.77;;
51987;SDS011;38003;52.012;4.346;2023-02-02T03:48:14;14.93;;;5.50;;
51987;SDS011;38003;52.012;4.346;2023-02-02T03:50:42;23.63;;;5.93;;
51987;SDS011;38003;52.012;4.346;2023-02-02T03:53:12;15.43;;;5.30;;
51987;SDS011;38003;52.012;4.346;2023-02-02T03:55:40;20.23;;;6.00;;
51987;SDS011;38003;52.012;4.346;2023-02-02T03:58:08;21.27;;;6.03;;
51987;SDS011;38003;52.012;4.346;2023-02-02T04:00:37;13.90;;;4.87;;
51987;SDS011;38003;52.012;4.346;2023-02-02T04:03:05;23.13;;;6.13;;
51987;SDS011;38003;52.012;4.346;2023-02-02T04:05:33;15.77;;;5.30;;
51987;SDS011;38003;52.012;4.346;2023-02-02T04:08:01;16.33;;;4.87;;
51987;SDS011;38003;52.012;4.346;2023-02-02T04:10:31;18.57;;;5.07;;
51987;SDS011;38003;52.012;4.346;2023-02-02T04:12:59;17.93;;;4.70;;
51987;SDS011;38003;52.012;4.346;2023-02-02T04:15:27;16.00;;;5.00;;
51987;SDS011;38003;52.012;4.346;2023-02-02T04:17:55;16.00;;;4.53;;
51987;SDS011;38003;52.012;4.346;2023-02-02T04:20:24;14.97;;;4.60;;
51987;SDS011;38003;52.012;4.346;2023-02-02T04:22:52;15.13;;;4.77;;
51987;SDS011;38003;52.012;4.346;2023-02-02T04:25:21;19.90;;;5.00;;
51987;SDS011;38003;52.012;4.346;2023-02-02T04:27:51;14.00;;;4.50;;
51987;SDS011;38003;52.012;4.346;2023-02-02T04:30:19;10.83;;;3.90;;
51987;SDS011;38003;52.012;4.346;2023-02-02T04:32:47;14.77;;;4.20;;
51987;SDS011;38003;52.012;4.346;2023-02-02T04:35:17;16.27;;;3.70;;
51987;SDS011;38003;52.012;4.346;2023-02-02T04:37:45;13.90;;;4.13;;
51987;SDS011;38003;52.012;4.346;2023-02-02T04:40:14;18.73;;;4.07;;
51987;SDS011;38003;52.012;4.346;2023-02-02T04:42:42;13.17;;;4.23;;
51987;SDS011;38003;52.012;4.346;2023-02-02T04:45:12;20.20;;;4.43;;
51987;SDS011;38003;52.012;4.346;2023-02-02T04:47:40;16.00;;;4.07;;
51987;SDS011;38003;52.012;4.346;2023-02-02T04:50:09;12.33;;;4.10;;
51987;SDS011;38003;52.012;4.346;2023-02-02T04:52:38;17.20;;;4.23;;
51987;SDS011;38003;52.012;4.346;2023-02-02T04:55:06;17.60;;;4.33;;
51987;SDS011;38003;52.012;4.346;2023-02-02T04:57:35;14.30;;;4.10;;
51987;SDS011;38003;52.012;4.346;2023-02-02T05:00:04;12.13;;;4.70;;
51987;SDS011;38003;52.012;4.346;2023-02-02T05:02:35;12.90;;;3.87;;
51987;SDS011;38003;52.012;4.346;2023-02-02T05:05:04;12.40;;;4.23;;
51987;SDS011;38003;52.012;4.346;2023-02-02T05:07:33;14.00;;;4.43;;
51987;SDS011;38003;52.012;4.346;2023-02-02T05:10:01;13.23;;;4.93;;
51987;SDS011;38003;52.012;4.346;2023-02-02T05:12:30;16.60;;;4.40;;
51987;SDS011;38003;52.012;4.346;2023-02-02T05:14:58;17.40;;;4.83;;
51987;SDS011;38003;52.012;4.346;2023-02-02T05:17:27;16.30;;;4.37;;
51987;SDS011;38003;52.012;4.346;2023-02-02T05:19:56;25.87;;;5.77;;
51987;SDS011;38003;52.012;4.346;2023-02-02T05:22:24;18.67;;;5.13;;
51987;SDS011;38003;52.012;4.346;2023-02-02T05:24:53;15.13;;;4.37;;
51987;SDS011;38003;52.012;4.346;2023-02-02T05:27:21;7.53;;;3.43;;
51987;SDS011;38003;52.012;4.346;2023-02-02T05:29:49;13.30;;;3.83;;
51987;SDS011;38003;52.012;4.346;2023-02-02T05:32:17;12.30;;;4.20;;
51987;SDS011;38003;52.012;4.346;2023-02-02T05:34:45;14.47;;;5.40;;
51987;SDS011;38003;52.012;4.346;2023-02-02T05:37:15;18.90;;;5.53;;
51987;SDS011;38003;52.012;4.346;2023-02-02T05:39:43;16.17;;;5.57;;
51987;SDS011;38003;52.012;4.346;2023-02-02T05:42:11;14.07;;;4.33;;
51987;SDS011;38003;52.012;4.346;2023-02-02T05:44:39;13.27;;;4.27;;
51987;SDS011;38003;52.012;4.346;2023-02-02T05:47:08;16.37;;;4.87;;
51987;SDS011;38003;52.012;4.346;2023-02-02T05:49:36;23.00;;;5.40;;
51987;SDS011;38003;52.012;4.346;2023-02-02T05:52:04;16.20;;;4.50;;
51987;SDS011;38003;52.012;4.346;2023-02-02T05:54:34;17.60;;;5.00;;
51987;SDS011;38003;52.012;4.346;2023-02-02T05:57:02;20.07;;;6.23;;
51987;SDS011;38003;52.012;4.346;2023-02-02T05:59:30;20.33;;;5.07;;
51987;SDS011;38003;52.012;4.346;2023-02-02T06:01:58;14.83;;;5.40;;
51987;SDS011;38003;52.012;4.346;2023-02-02T06:04:26;17.50;;;5.57;;
51987;SDS011;38003;52.012;4.346;2023-02-02T06:06:55;15.70;;;4.73;;
51987;SDS011;38003;52.012;4.346;2023-02-02T06:09:23;13.20;;;5.17;;
51987;SDS011;38003;52.012;4.346;2023-02-02T06:11:52;15.33;;;4.83;;
51987;SDS011;38003;52.012;4.346;2023-02-02T06:14:20;12.27;;;4.87;;
51987;SDS011;38003;52.012;4.346;2023-02-02T06:16:49;16.90;;;4.73;;
51987;SDS011;38003;52.012;4.346;2023-02-02T06:19:17;23.50;;;6.90;;
51987;SDS011;38003;52.012;4.346;2023-02-02T06:21:46;13.03;;;4.97;;
51987;SDS011;38003;52.012;4.346;2023-02-02T06:24:14;20.13;;;5.47;;
51987;SDS011;38003;52.012;4.346;2023-02-02T06:26:42;16.40;;;6.17;;
51987;SDS011;38003;52.012;4.346;2023-02-02T06:29:12;16.20;;;6.37;;
51987;SDS011;38003;52.012;4.346;2023-02-02T06:31:41;14.80;;;6.13;;
51987;SDS011;38003;52.012;4.346;2023-02-02T06:34:09;18.77;;;6.83;;
51987;SDS011;38003;52.012;4.346;2023-02-02T06:36:40;14.60;;;5.60;;
51987;SDS011;38003;52.012;4.346;2023-02-02T06:39:08;18.17;;;6.33;;
51987;SDS011;38003;52.012;4.346;2023-02-02T06:41:36;14.13;;;5.70;;
51987;SDS011;38003;52.012;4.346;2023-02-02T06:44:05;19.30;;;5.80;;
51987;SDS011;38003;52.012;4.346;2023-02-02T06:46:35;10.47;;;4.90;;
51987;SDS011;38003;52.012;4.346;2023-02-02T06:49:03;16.63;;;5.50;;
51987;SDS011;38003;52.012;4.346;2023-02-02T06:51:31;17.17;;;5.93;;
51987;SDS011;38003;52.012;4.346;2023-02-02T06:53:59;16.23;;;4.80;;
51987;SDS011;38003;52.012;4.346;2023-02-02T06:56:29;12.67;;;4.00;;
51987;SDS011;38003;52.012;4.346;2023-02-02T06:58:57;19.23;;;4.53;;
51987;SDS011;38003;52.012;4.346;2023-02-02T07:01:25;19.33;;;4.70;;
51987;SDS011;38003;52.012;4.346;2023-02-02T07:03:55;13.57;;;4.77;;
51987;SDS011;38003;52.012;4.346;2023-02-02T07:06:23;19.00;;;4.80;;
51987;SDS011;38003;52.012;4.346;2023-02-02T07:08:54;11.47;;;4.03;;
51987;SDS011;38003;52.012;4.346;2023-02-02T07:11:28;18.67;;;5.17;;
51987;SDS011;38003;52.012;4.346;2023-02-02T07:13:56;21.10;;;5.57;;
51987;SDS011;38003;52.012;4.346;2023-02-02T07:16:24;18.73;;;5.57;;
51987;SDS011;38003;52.012;4.346;2023-02-02T07:18:52;19.87;;;5.23;;
51987;SDS011;38003;52.012;4.346;2023-02-02T07:21:23;16.87;;;5.17;;
51987;SDS011;38003;52.012;4.346;2023-02-02T07:23:53;19.03;;;5.60;;
51987;SDS011;38003;52.012;4.346;2023-02-02T07:26:21;17.07;;;5.37;;
51987;SDS011;38003;52.012;4.346;2023-02-02T07:28:50;13.17;;;4.90;;
51987;SDS011;38003;52.012;4.346;2023-02-02T07:31:20;13.37;;;5.47;;
51987;SDS011;38003;52.012;4.346;2023-02-02T07:33:48;14.37;;;6.00;;
51987;SDS011;38003;52.012;4.346;2023-02-02T07:36:17;18.43;;;6.17;;
51987;SDS011;38003;52.012;4.346;2023-02-02T07:38:47;18.27;;;6.10;;
51987;SDS011;38003;52.012;4.346;2023-02-02T07:41:16;17.37;;;4.53;;
51987;SDS011;38003;52.012;4.346;2023-02-02T07:43:45;16.10;;;5.20;;
51987;SDS011;38003;52.012;4.346;2023-02-02T07:46:14;12.50;;;4.73;;
51987;SDS011;38003;52.012;4.346;2023-02-02T07:48:42;17.67;;;5.43;;
51987;SDS011;38003;52.012;4.346;2023-02-02T07:51:11;18.00;;;7.17;;
51987;SDS011;38003;52.012;4.346;2023-02-02T07:53:41;18.03;;;6.73;;
51987;SDS011;38003;52.012;4.346;2023-02-02T07:56:11;17.73;;;6.33;;
51987;SDS011;38003;52.012;4.346;2023-02-02T07:58:40;12.97;;;6.37;;
51987;SDS011;38003;52.012;4.346;2023-02-02T08:01:10;19.80;;;6.10;;
51987;SDS011;38003;52.012;4.346;2023-02-02T08:03:38;14.03;;;5.37;;
51987;SDS011;38003;52.012;4.346;2023-02-02T08:06:08;20.50;;;5.83;;
51987;SDS011;38003;52.012;4.346;2023-02-02T08:08:37;14.13;;;4.73;;
51987;SDS011;38003;52.012;4.346;2023-02-02T08:11:06;14.57;;;5.10;;
51987;SDS011;38003;52.012;4.346;2023-02-02T08:13:37;15.97;;;4.37;;
51987;SDS011;38003;52.012;4.346;2023-02-02T08:16:05;14.67;;;5.23;;
51987;SDS011;38003;52.012;4.346;2023-02-02T08:18:34;19.53;;;6.90;;
51987;SDS011;38003;52.012;4.346;2023-02-02T08:21:04;16.83;;;5.03;;
51987;SDS011;38003;52.012;4.346;2023-02-02T08:23:33;16.37;;;5.23;;
51987;SDS011;38003;52.012;4.346;2023-02-02T08:26:05;22.37;;;4.40;;
51987;SDS011;38003;52.012;4.346;2023-02-02T08:28:34;18.27;;;5.43;;
51987;SDS011;38003;52.012;4.346;2023-02-02T08:31:04;10.50;;;4.43;;
51987;SDS011;38003;52.012;4.346;2023-02-02T08:33:32;16.60;;;5.07;;
51987;SDS011;38003;52.012;4.346;2023-02-02T08:36:01;9.17;;;4.20;;
51987;SDS011;38003;52.012;4.346;2023-02-02T08:38:29;20.43;;;4.87;;
51987;SDS011;38003;52.012;4.346;2023-02-02T08:41:02;18.80;;;4.70;;
51987;SDS011;38003;52.012;4.346;2023-02-02T08:43:31;11.33;;;4.23;;
51987;SDS011;38003;52.012;4.346;2023-02-02T08:46:00;13.60;;;4.33;;
51987;SDS011;38003;52.012;4.346;2023-02-02T08:48:32;13.93;;;4.43;;
51987;SDS011;38003;52.012;4.346;2023-02-02T08:51:01;17.67;;;5.57;;
51987;SDS011;38003;52.012;4.346;2023-02-02T08:53:29;22.57;;;5.80;;
51987;SDS011;38003;52.012;4.346;2023-02-02T08:55:58;15.07;;;5.20;;
51987;SDS011;38003;52.012;4.346;2023-02-02T08:58:26;19.03;;;5.90;;
51987;SDS011;38003;52.012;4.346;2023-02-02T09:01:02;20.30;;;5.60;;
51987;SDS011;38003;52.012;4.346;2023-02-02T09:03:32;14.77;;;5.17;;
51987;SDS011;38003;52.012;4.346;2023-02-02T09:06:04;18.23;;;5.17;;
51987;SDS011;38003;52.012;4.346;2023-02-02T09:08:32;17.83;;;4.73;;
51987;SDS011;38003;52.012;4.346;2023-02-02T09:11:02;11.20;;;3.97;;
51987;SDS011;38003;52.012;4.346;2023-02-02T09:13:30;17.90;;;4.90;;
51987;SDS011;38003;52.012;4.346;2023-02-02T09:15:59;12.13;;;3.60;;
51987;SDS011;38003;52.012;4.346;2023-02-02T09:18:27;18.27;;;4.60;;
51987;SDS011;38003;52.012;4.346;2023-02-02T09:20:59;18.17;;;4.80;;
51987;SDS011;38003;52.012;4.346;2023-02-02T09:23:28;15.30;;;4.80;;
51987;SDS011;38003;52.012;4.346;2023-02-02T09:25:56;15.23;;;4.23;;
51987;SDS011;38003;52.012;4.346;2023-02-02T09:28:24;17.40;;;4.40;;
51987;SDS011;38003;52.012;4.346;2023-02-02T09:30:53;14.50;;;4.40;;
51987;SDS011;38003;52.012;4.346;2023-02-02T09:33:21;21.83;;;5.40;;
51987;SDS011;38003;52.012;4.346;2023-02-02T09:35:49;11.00;;;3.50;;
51987;SDS011;38003;52.012;4.346;2023-02-02T09:38:19;16.73;;;3.90;;
51987;SDS011;38003;52.012;4.346;2023-02-02T09:40:47;11.60;;;3.30;;
51987;SDS011;38003;52.012;4.346;2023-02-02T09:43:20;18.20;;;4.60;;
51987;SDS011;38003;52.012;4.346;2023-02-02T09:45:52;15.43;;;3.20;;
51987;SDS011;38003;52.012;4.346;2023-02-02T09:48:24;11.63;;;2.53;;
51987;SDS011;38003;52.012;4.346;2023-02-02T09:50:55;11.10;;;2.87;;
51987;SDS011;38003;52.012;4.346;2023-02-02T09:53:28;13.50;;;3.10;;
51987;SDS011;38003;52.012;4.346;2023-02-02T09:56:04;16.00;;;3.63;;
51987;SDS011;38003;52.012;4.346;2023-02-02T09:58:33;9.33;;;2.30;;
51987;SDS011;38003;52.012;4.346;2023-02-02T10:01:03;11.97;;;2.47;;
51987;SDS011;38003;52.012;4.346;2023-02-02T10:03:35;14.73;;;2.93;;
51987;SDS011;38003;52.012;4.346;2023-02-02T10:06:05;15.83;;;3.13;;
51987;SDS011;38003;52.012;4.346;2023-02-02T10:08:41;13.23;;;3.03;;
51987;SDS011;38003;52.012;4.346;2023-02-02T10:11:25;14.87;;;2.80;;
51987;SDS011;38003;52.012;4.346;2023-02-02T10:13:56;16.43;;;3.40;;
51987;SDS011;38003;52.012;4.346;2023-02-02T10:16:26;10.60;;;2.83;;
51987;SDS011;38003;52.012;4.346;2023-02-02T10:18:56;15.87;;;2.60;;
51987;SDS011;38003;52.012;4.346;2023-02-02T10:21:28;12.47;;;2.63;;
51987;SDS011;38003;52.012;4.346;2023-02-02T10:24:00;19.70;;;3.10;;
51987;SDS011;38003;52.012;4.346;2023-02-02T10:26:31;15.80;;;3.20;;
51987;SDS011;38003;52.012;4.346;2023-02-02T10:29:08;15.63;;;2.70;;
51987;SDS011;38003;52.012;4.346;2023-02-02T10:31:43;14.03;;;2.93;;
51987;SDS011;38003;52.012;4.346;2023-02-02T10:34:14;12.23;;;2.73;;
51987;SDS011;38003;52.012;4.346;2023-02-02T10:36:50;13.20;;;2.77;;
51987;SDS011;38003;52.012;4.346;2023-02-02T10:39:23;11.67;;;2.47;;
51987;SDS011;38003;52.012;4.346;2023-02-02T10:41:56;16.03;;;3.07;;
51987;SDS011;38003;52.012;4.346;2023-02-02T10:44:29;15.73;;;3.00;;
51987;SDS011;38003;52.012;4.346;2023-02-02T10:47:00;10.00;;;2.50;;
51987;SDS011;38003;52.012;4.346;2023-02-02T10:49:31;11.27;;;2.57;;
51987;SDS011;38003;52.012;4.346;2023-02-02T10:52:03;13.13;;;2.60;;
51987;SDS011;38003;52.012;4.346;2023-02-02T10:54:53;12.90;;;2.80;;
51987;SDS011;38003;52.012;4.346;2023-02-02T10:57:33;12.93;;;3.00;;
51987;SDS011;38003;52.012;4.346;2023-02-02T11:00:09;15.00;;;3.17;;
51987;SDS011;38003;52.012;4.346;2023-02-02T11:02:42;21.13;;;3.57;;
51987;SDS011;38003;52.012;4.346;2023-02-02T11:05:18;15.63;;;3.10;;
51987;SDS011;38003;52.012;4.346;2023-02-02T11:08:12;18.30;;;3.00;;
51987;SDS011;38003;52.012;4.346;2023-02-02T11:10:42;14.30;;;3.40;;
51987;SDS011;38003;52.012;4.346;2023-02-02T11:13:11;16.33;;;2.90;;
51987;SDS011;38003;52.012;4.346;2023-02-02T11:15:42;11.97;;;2.60;;
51987;SDS011;38003;52.012;4.346;2023-02-02T11:18:13;20.23;;;3.10;;
51987;SDS011;38003;52.012;4.346;2023-02-02T11:20:52;11.53;;;2.97;;
51987;SDS011;38003;52.012;4.346;2023-02-02T11:23:20;14.87;;;3.13;;
51987;SDS011;38003;52.012;4.346;2023-02-02T11:25:57;14.40;;;3.23;;
51987;SDS011;38003;52.012;4.346;2023-02-02T11:28:26;17.27;;;2.80;;
51987;SDS011;38003;52.012;4.346;2023-02-02T11:30:56;10.07;;;2.30;;
51987;SDS011;38003;52.012;4.346;2023-02-02T11:33:26;11.27;;;2.50;;
51987;SDS011;38003;52.012;4.346;2023-02-02T11:35:55;17.03;;;3.30;;
51987;SDS011;38003;52.012;4.346;2023-02-02T11:38:23;14.97;;;2.90;;
51987;SDS011;38003;52.012;4.346;2023-02-02T11:40:53;15.53;;;3.17;;
51987;SDS011;38003;52.012;4.346;2023-02-02T11:43:25;12.20;;;3.03;;
51987;SDS011;38003;52.012;4.346;2023-02-02T11:45:56;8.53;;;2.60;;
51987;SDS011;38003;52.012;4.346;2023-02-02T11:48:29;10.03;;;2.97;;
51987;SDS011;38003;52.012;4.346;2023-02-02T11:50:58;9.50;;;2.00;;
51987;SDS011;38003;52.012;4.346;2023-02-02T11:53:28;10.37;;;2.57;;
51987;SDS011;38003;52.012;4.346;2023-02-02T11:55:58;12.53;;;3.30;;
51987;SDS011;38003;52.012;4.346;2023-02-02T11:58:30;10.03;;;2.20;;
51987;SDS011;38003;52.012;4.346;2023-02-02T12:01:15;11.30;;;2.60;;
51987;SDS011;38003;52.012;4.346;2023-02-02T12:03:49;14.37;;;3.33;;
51987;SDS011;38003;52.012;4.346;2023-02-02T12:06:18;16.63;;;2.90;;
51987;SDS011;38003;52.012;4.346;2023-02-02T12:08:46;12.53;;;2.80;;
51987;SDS011;38003;52.012;4.346;2023-02-02T12:11:20;10.97;;;2.27;;
51987;SDS011;38003;52.012;4.346;2023-02-02T12:13:58;13.77;;;3.00;;
51987;SDS011;38003;52.012;4.346;2023-02-02T12:16:32;14.57;;;3.10;;
51987;SDS011;38003;52.012;4.346;2023-02-02T12:19:13;11.73;;;3.03;;
51987;SDS011;38003;52.012;4.346;2023-02-02T12:21:45;17.77;;;9.47;;
51987;SDS011;38003;52.012;4.346;2023-02-02T12:24:21;13.67;;;12.37;;
51987;SDS011;38003;52.012;4.346;2023-02-02T12:26:56;30.03;;;27.40;;
51987;SDS011;38003;52.012;4.346;2023-02-02T12:29:32;52.10;;;48.50;;
51987;SDS011;38003;52.012;4.346;2023-02-02T12:32:05;62.87;;;59.03;;
51987;SDS011;38003;52.012;4.346;2023-02-02T12:34:39;91.40;;;86.30;;
51987;SDS011;38003;52.012;4.346;2023-02-02T12:37:16;97.47;;;92.07;;
51987;SDS011;38003;52.012;4.346;2023-02-02T12:39:51;144.97;;;137.50;;
51987;SDS011;38003;52.012;4.346;2023-02-02T12:45:29;134.67;;;128.03;;
51987;SDS011;38003;52.012;4.346;2023-02-02T12:48:03;184.20;;;175.73;;
51987;SDS011;38003;52.012;4.346;2023-02-02T12:50:36;207.60;;;198.67;;
51987;SDS011;38003;52.012;4.346;2023-02-02T12:53:16;220.77;;;211.40;;
51987;SDS011;38003;52.012;4.346;2023-02-02T12:55:47;223.10;;;213.70;;
51987;SDS011;38003;52.012;4.346;2023-02-02T12:58:22;252.73;;;242.13;;
51987;SDS011;38003;52.012;4.346;2023-02-02T13:00:59;249.83;;;239.37;;
51987;SDS011;38003;52.012;4.346;2023-02-02T13:03:34;219.67;;;210.80;;
51987;SDS011;38003;52.012;4.346;2023-02-02T13:06:08;255.93;;;245.20;;
51987;SDS011;38003;52.012;4.346;2023-02-02T13:08:41;279.97;;;268.73;;
51987;SDS011;38003;52.012;4.346;2023-02-02T13:11:14;316.77;;;304.57;;
51987;SDS011;38003;52.012;4.346;2023-02-02T13:13:56;387.97;;;372.87;;
51987;SDS011;38003;52.012;4.346;2023-02-02T13:16:26;283.60;;;272.60;;
51987;SDS011;38003;52.012;4.346;2023-02-02T13:18:57;355.50;;;341.50;;
51987;SDS011;38003;52.012;4.346;2023-02-02T13:21:28;333.13;;;319.93;;
51987;SDS011;38003;52.012;4.346;2023-02-02T13:23:58;342.93;;;329.67;;
51987;SDS011;38003;52.012;4.346;2023-02-02T13:26:30;344.57;;;331.17;;
51987;SDS011;38003;52.012;4.346;2023-02-02T13:29:02;383.30;;;368.27;;
51987;SDS011;38003;52.012;4.346;2023-02-02T13:31:34;349.97;;;336.27;;
51987;SDS011;38003;52.012;4.346;2023-02-02T13:34:11;346.37;;;332.77;;
51987;SDS011;38003;52.012;4.346;2023-02-02T13:36:42;399.97;;;383.87;;
51987;SDS011;38003;52.012;4.346;2023-02-02T13:39:14;411.97;;;395.43;;
51987;SDS011;38003;52.012;4.346;2023-02-02T13:41:43;467.63;;;449.03;;
51987;SDS011;38003;52.012;4.346;2023-02-02T13:44:12;519.70;;;499.33;;
51987;SDS011;38003;52.012;4.346;2023-02-02T13:46:46;531.27;;;509.97;;
51987;SDS011;38003;52.012;4.346;2023-02-02T13:49:18;611.07;;;586.30;;
51987;SDS011;38003;52.012;4.346;2023-02-02T13:51:49;658.77;;;631.50;;
51987;SDS011;38003;52.012;4.346;2023-02-02T13:57:05;674.30;;;646.97;;
51987;SDS011;38003;52.012;4.346;2023-02-02T13:59:43;674.20;;;646.47;;
51987;SDS011;38003;52.012;4.346;2023-02-02T14:02:17;686.03;;;657.47;;
51987;SDS011;38003;52.012;4.346;2023-02-02T14:04:51;690.90;;;662.77;;
51987;SDS011;38003;52.012;4.346;2023-02-02T14:07:25;690.77;;;662.37;;
51987;SDS011;38003;52.012;4.346;2023-02-02T14:09:53;743.80;;;712.20;;
51987;SDS011;38003;52.012;4.346;2023-02-02T14:12:26;777.30;;;742.33;;
51987;SDS011;38003;52.012;4.346;2023-02-02T14:14:55;739.40;;;708.27;;
51987;SDS011;38003;52.012;4.346;2023-02-02T14:20:37;774.70;;;740.47;;
51987;SDS011;38003;52.012;4.346;2023-02-02T14:25:52;805.13;;;768.87;;
51987;SDS011;38003;52.012;4.346;2023-02-02T14:28:38;785.20;;;749.97;;
51987;SDS011;38003;52.012;4.346;2023-02-02T14:31:17;794.20;;;757.83;;
51987;SDS011;38003;52.012;4.346;2023-02-02T14:36:52;750.33;;;718.73;;
51987;SDS011;38003;52.012;4.346;2023-02-02T14:39:25;740.40;;;709.10;;
51987;SDS011;38003;52.012;4.346;2023-02-02T14:41:59;710.80;;;680.90;;
51987;SDS011;38003;52.012;4.346;2023-02-02T14:45:12;738.73;;;708.17;;
51987;SDS011;38003;52.012;4.346;2023-02-02T14:47:46;706.60;;;677.60;;
51987;SDS011;38003;52.012;4.346;2023-02-02T14:50:15;726.47;;;696.30;;
51987;SDS011;38003;52.012;4.346;2023-02-02T14:52:46;738.93;;;707.43;;
51987;SDS011;38003;52.012;4.346;2023-02-02T14:55:23;721.27;;;690.70;;
51987;SDS011;38003;52.012;4.346;2023-02-02T14:57:52;688.57;;;660.37;;
51987;SDS011;38003;52.012;4.346;2023-02-02T15:00:22;618.90;;;593.90;;
51987;SDS011;38003;52.012;4.346;2023-02-02T15:02:51;645.50;;;619.73;;
51987;SDS011;38003;52.012;4.346;2023-02-02T15:08:18;592.23;;;568.17;;
51987;SDS011;38003;52.012;4.346;2023-02-02T15:10:57;605.10;;;580.30;;
51987;SDS011;38003;52.012;4.346;2023-02-02T15:13:27;595.10;;;571.70;;
51987;SDS011;38003;52.012;4.346;2023-02-02T15:16:00;553.07;;;530.83;;